Time;durP1;ratioP1;P1;durP2;ratioP2;P2;SDS_P1;SDS_P2;PMS_P1;PMS_P2;Temp;Humidity;BMP_temperature;BMP_pressure;BME280_temperature;BME280_humidity;BME280_pressure;Samples;Min_cycle;Max_cycle;Signal;HPM_P1;HPM_P2
2023/04/03 00:00:42;;;;;;;5.35;3.17;;;;;;;9.75;80.83;98076.44;5095515;28;20555;-94
2023/04/03 00:03:08;;;;;;;7.57;2.83;;;;;;;9.69;80.66;98063.38;5095920;28;20032;-93
2023/04/03 00:05:34;;;;;;;5.65;2.80;;;;;;;9.64;80.57;98057.38;5095546;28;20465;-94
2023/04/03 00:08:01;;;;;;;7.82;3.30;;;;;;;9.78;80.36;98071.06;5095778;28;20067;-93
2023/04/03 00:10:28;;;;;;;6.07;2.70;;;;;;;9.62;80.69;98062.72;5094590;28;20059;-93
2023/04/03 00:12:54;;;;;;;6.85;3.03;;;;;;;9.78;80.64;98078.13;5095375;28;20227;-92
2023/04/03 00:15:20;;;;;;;5.70;3.05;;;;;;;9.72;80.68;98071.25;5094823;28;20072;-94
2023/04/03 00:17:45;;;;;;;9.88;3.10;;;;;;;9.71;80.13;98055.38;5094959;28;20075;-91
2023/04/03 00:20:11;;;;;;;5.20;2.85;;;;;;;9.81;79.90;98055.00;5095644;28;20048;-91
2023/04/03 00:22:37;;;;;;;6.30;2.90;;;;;;;9.91;79.36;98066.19;5095724;28;20048;-92
2023/04/03 00:25:06;;;;;;;4.38;2.63;;;;;;;9.92;78.98;98059.06;5095157;28;20070;-92
2023/04/03 00:27:32;;;;;;;4.35;3.03;;;;;;;9.86;78.77;98030.94;5095947;28;20046;-92
2023/04/03 00:29:58;;;;;;;7.00;3.08;;;;;;;10.00;78.35;98043.72;5095249;28;20123;-92
2023/04/03 00:32:24;;;;;;;4.38;2.75;;;;;;;10.18;77.32;98063.44;5095386;28;20071;-92
2023/04/03 00:34:50;;;;;;;5.63;2.80;;;;;;;10.05;76.71;98018.72;5095774;28;20210;-93
2023/04/03 00:37:15;;;;;;;7.30;2.88;;;;;;;10.11;77.34;98038.88;5095101;28;20039;-95
2023/04/03 00:39:41;;;;;;;5.20;2.92;;;;;;;10.27;77.03;98052.44;5094961;28;20040;-92
2023/04/03 00:42:08;;;;;;;5.65;2.88;;;;;;;10.23;77.00;98049.03;5094886;28;20044;-92
2023/04/03 00:45:11;;;;;;;4.70;2.70;;;;;;;10.32;76.64;98058.47;5094879;28;20067;-91
2023/04/03 00:47:38;;;;;;;4.60;3.00;;;;;;;10.20;77.08;98043.84;5090568;28;20040;-93
2023/04/03 00:50:06;;;;;;;6.90;3.20;;;;;;;10.13;77.44;98049.44;5093363;28;20036;-93
2023/04/03 00:52:32;;;;;;;5.15;2.90;;;;;;;10.06;77.85;98047.03;5094648;28;20519;-92
2023/04/03 00:55:01;;;;;;;6.30;3.17;;;;;;;9.74;79.17;98020.78;5094339;28;20036;-92
2023/04/03 00:57:30;;;;;;;;;;;;;;;9.82;80.51;98056.75;5093462;28;20068;-93
2023/04/03 01:00:01;;;;;;;6.60;2.75;;;;;;;9.66;80.20;98048.44;5094104;28;19928;-90
2023/04/03 01:02:27;;;;;;;8.65;3.63;;;;;;;9.66;81.17;98063.50;5087257;28;20055;-92
2023/04/03 01:04:53;;;;;;;8.15;3.72;;;;;;;9.40;82.79;98035.22;5094369;28;20051;-93
2023/04/03 01:07:22;;;;;;;6.90;3.50;;;;;;;9.41;83.07;98040.47;5094281;28;20127;-91
2023/04/03 01:09:52;;;;;;;5.03;3.15;;;;;;;9.48;82.88;98062.34;5094317;28;20047;-94
2023/04/03 01:12:21;;;;;;;5.03;3.50;;;;;;;9.36;84.55;98050.34;5094062;28;20044;-92
2023/04/03 01:14:50;;;;;;;6.93;3.58;;;;;;;9.23;84.72;98039.28;5094193;28;20468;-93
2023/04/03 01:17:31;;;;;;;6.70;3.70;;;;;;;9.34;85.57;98065.47;5093774;28;20139;-92
2023/04/03 01:20:18;;;;;;;8.23;4.03;;;;;;;9.15;86.31;98044.00;5092562;28;20040;-92
2023/04/03 01:22:56;;;;;;;6.97;3.95;;;;;;;9.16;86.98;98058.97;5094445;28;20493;-93
2023/04/03 01:25:22;;;;;;;6.65;4.50;;;;;;;9.06;87.26;98038.97;5094445;28;20051;-92
2023/04/03 01:27:48;;;;;;;8.68;4.45;;;;;;;9.11;87.75;98049.44;5093648;28;20040;-92
2023/04/03 01:30:19;;;;;;;8.25;4.32;;;;;;;8.90;88.08;98019.19;5093231;28;20047;-92
2023/04/03 01:32:47;;;;;;;7.25;3.80;;;;;;;8.87;87.71;98016.63;5093724;28;20036;-93
2023/04/03 01:35:13;;;;;;;8.25;4.00;;;;;;;8.93;87.95;98029.69;5094031;28;20131;-93
2023/04/03 01:37:39;;;;;;;6.47;3.80;;;;;;;8.97;87.85;98036.63;5093797;28;20040;-92
2023/04/03 01:40:06;;;;;;;7.13;3.80;;;;;;;8.88;87.95;98021.03;5093949;28;20539;-92
2023/04/03 01:42:32;;;;;;;6.30;3.58;;;;;;;8.86;87.87;98014.91;5093930;28;20046;-93
2023/04/03 01:44:58;;;;;;;5.97;3.40;;;;;;;9.04;86.96;98048.75;5093905;28;20040;-94
2023/04/03 01:47:24;;;;;;;6.22;3.53;;;;;;;9.06;86.72;98036.31;5093037;28;20075;-92
2023/04/03 01:49:51;;;;;;;7.05;3.55;;;;;;;9.07;86.68;98045.16;5093794;28;20513;-92
2023/04/03 01:52:17;;;;;;;7.45;3.70;;;;;;;9.02;86.46;98037.34;5094476;28;20046;-93
2023/04/03 01:54:43;;;;;;;5.95;3.70;;;;;;;8.99;86.14;98024.19;5093724;28;20119;-92
2023/04/03 01:57:09;;;;;;;8.55;3.60;;;;;;;8.92;85.92;98020.88;5093775;28;20107;-93
2023/04/03 01:59:34;;;;;;;7.78;3.05;;;;;;;8.87;85.45;97998.94;5093392;28;20083;-93
2023/04/03 02:02:00;;;;;;;6.18;3.03;;;;;;;9.01;85.24;98036.47;5093206;28;20044;-93
2023/04/03 02:04:26;;;;;;;4.95;2.90;;;;;;;9.11;85.42;98042.38;5093987;28;20493;-92
2023/04/03 02:06:53;;;;;;;6.45;3.65;;;;;;;8.96;85.07;98006.59;5093421;28;20051;-93
2023/04/03 02:09:19;;;;;;;4.25;3.10;;;;;;;8.98;84.87;98004.75;5093582;28;20033;-92
2023/04/03 02:11:45;;;;;;;4.78;3.08;;;;;;;9.10;84.63;98019.38;5093819;28;20038;-93
2023/04/03 02:14:11;;;;;;;4.50;2.92;;;;;;;9.14;84.44;98023.69;5093869;28;20040;-93
2023/04/03 02:16:39;;;;;;;5.45;3.10;;;;;;;8.84;84.93;97970.72;5092857;28;20044;-92
2023/04/03 02:19:06;;;;;;;4.53;2.80;;;;;;;8.94;84.20;97989.88;5094061;28;20040;-93
2023/04/03 02:21:32;;;;;;;5.22;2.80;;;;;;;8.90;84.39;97982.06;5093485;28;20068;-92
2023/04/03 02:23:59;;;;;;;4.70;2.72;;;;;;;8.94;84.93;97997.81;5093806;28;20049;-92
2023/04/03 02:26:25;;;;;;;5.60;2.75;;;;;;;8.90;84.73;97988.22;5093186;28;20032;-91
2023/04/03 02:28:51;;;;;;;3.42;2.50;;;;;;;9.10;84.43;98010.56;5093809;28;20046;-92
2023/04/03 02:31:17;;;;;;;4.88;2.88;;;;;;;9.20;83.93;98019.97;5092443;28;20040;-93
2023/04/03 02:33:43;;;;;;;5.15;2.78;;;;;;;9.04;83.71;97982.47;5093915;28;20094;-93
2023/04/03 02:36:10;;;;;;;4.45;2.80;;;;;;;9.12;84.05;97995.47;5093711;28;20401;-94
2023/04/03 02:38:36;;;;;;;4.43;2.78;;;;;;;9.10;84.29;97997.31;5093537;28;20046;-93
2023/04/03 02:41:04;;;;;;;3.72;2.47;;;;;;;9.12;84.34;98004.28;5093452;28;20454;-93
2023/04/03 02:43:30;;;;;;;4.75;2.70;;;;;;;9.04;84.47;97988.66;5093550;28;20036;-94
2023/04/03 02:45:56;;;;;;;4.80;2.60;;;;;;;9.10;84.55;97997.31;5093096;28;20143;-93
2023/04/03 02:48:22;;;;;;;4.28;2.60;;;;;;;9.09;84.47;97995.59;5093450;28;20488;-92
2023/04/03 02:50:48;;;;;;;4.25;2.80;;;;;;;9.03;84.61;97978.94;5093531;28;20036;-92
2023/04/03 02:53:15;;;;;;;5.38;2.80;;;;;;;9.08;84.52;97981.44;5093285;28;20098;-92
2023/04/03 02:55:41;;;;;;;4.53;2.83;;;;;;;9.07;84.51;97984.16;5093407;28;20485;-92
2023/04/03 02:58:08;;;;;;;9.07;3.10;;;;;;;9.09;84.29;97972.59;5092930;28;20135;-93
2023/04/03 03:00:34;;;;;;;5.78;3.05;;;;;;;9.19;84.38;98000.50;5092692;28;20497;-92
2023/04/03 03:03:00;;;;;;;4.32;2.70;;;;;;;9.19;84.58;97989.91;5093138;28;20043;-92
2023/04/03 03:05:27;;;;;;;4.45;2.90;;;;;;;9.18;84.25;97977.56;5093405;28;20554;-92
2023/04/03 03:07:53;;;;;;;4.25;2.80;;;;;;;9.03;84.50;97963.03;5092735;28;20055;-93
2023/04/03 03:10:19;;;;;;;3.78;2.53;;;;;;;9.16;84.30;97986.50;5092825;28;20105;-93
2023/04/03 03:12:45;;;;;;;6.65;3.03;;;;;;;9.17;84.82;97985.56;5095246;28;20040;-93
2023/04/03 03:15:12;;;;;;;4.47;2.40;;;;;;;9.22;83.68;97957.13;5095968;28;20489;-92
2023/04/03 03:17:38;;;;;;;4.88;2.80;;;;;;;9.50;83.19;97978.25;5096378;28;20040;-93
2023/04/03 03:20:05;;;;;;;4.00;2.63;;;;;;;9.56;82.89;97971.84;5096627;28;20362;-92
2023/04/03 03:22:32;;;;;;;4.20;2.70;;;;;;;9.45;82.94;97958.94;5097113;28;20059;-93
2023/04/03 03:24:57;;;;;;;6.20;3.40;;;;;;;9.55;82.82;97978.06;5096683;28;20044;-92
2023/04/03 03:27:24;;;;;;;5.43;2.90;;;;;;;9.42;82.95;97956.41;5096689;28;20050;-93
2023/04/03 03:29:50;;;;;;;4.93;3.00;;;;;;;9.57;82.98;97978.91;5095925;28;20051;-93
2023/04/03 03:32:17;;;;;;;5.25;3.17;;;;;;;9.40;83.27;97960.91;5095605;28;20044;-91
2023/04/03 03:34:43;;;;;;;4.15;3.08;;;;;;;9.46;83.60;97979.28;5096247;28;20127;-93
2023/04/03 03:37:09;;;;;;;4.22;2.95;;;;;;;9.25;83.91;97946.38;5095915;28;20087;-93
2023/04/03 03:39:35;;;;;;;5.57;3.20;;;;;;;9.30;84.16;97960.34;5096123;28;20055;-92
2023/04/03 03:42:01;;;;;;;4.55;2.83;;;;;;;9.34;83.54;97956.66;5095802;28;20047;-93
2023/04/03 03:44:28;;;;;;;5.15;3.03;;;;;;;9.40;83.47;97956.47;5095742;28;20059;-93
2023/04/03 03:46:55;;;;;;;4.55;3.10;;;;;;;9.45;83.38;97958.94;5095002;28;20032;-91
2023/04/03 03:49:23;;;;;;;4.40;2.92;;;;;;;9.40;83.67;97968.88;5095953;28;20409;-92
2023/04/03 03:51:50;;;;;;;3.95;2.92;;;;;;;9.37;84.01;97976.94;5095574;28;20062;-94
2023/04/03 03:54:16;;;;;;;5.63;3.20;;;;;;;9.30;84.05;97970.97;5095829;28;20097;-94
2023/04/03 03:56:42;;;;;;;5.50;3.10;;;;;;;9.31;84.24;97959.44;5095736;28;20040;-92
2023/04/03 03:59:08;;;;;;;4.97;3.15;;;;;;;9.48;84.24;97989.81;5095252;28;20051;-93
2023/04/03 04:01:34;;;;;;;5.65;3.20;;;;;;;9.31;84.04;97963.88;5095134;28;20134;-92
2023/04/03 04:03:59;;;;;;;6.28;2.85;;;;;;;9.24;84.34;97966.75;5095456;28;20040;-94
2023/04/03 04:06:27;;;;;;;4.40;3.13;;;;;;;9.32;84.59;97976.22;5095776;28;20409;-91
2023/04/03 04:08:53;;;;;;;4.68;3.50;;;;;;;9.23;85.16;97954.38;5091470;28;20094;-93
2023/04/03 04:11:20;;;;;;;4.72;3.20;;;;;;;9.27;85.54;97980.84;5092466;28;20028;-92
2023/04/03 04:13:46;;;;;;;4.40;3.08;;;;;;;9.35;85.03;97984.09;5094929;28;20052;-92
2023/04/03 04:16:11;;;;;;;4.70;3.03;;;;;;;9.33;84.41;97976.19;5094758;28;20040;-92
2023/04/03 04:18:37;;;;;;;5.28;2.95;;;;;;;9.45;83.25;97977.53;5095037;28;20392;-92
2023/04/03 04:21:03;;;;;;;6.07;2.83;;;;;;;9.34;83.61;97955.81;5095057;28;20067;-91
2023/04/03 04:23:30;;;;;;;4.57;2.88;;;;;;;9.77;81.46;97973.72;5095390;28;20064;-93
2023/04/03 04:25:56;;;;;;;5.05;2.50;;;;;;;9.79;80.88;97971.88;5095790;28;20039;-91
2023/04/03 04:28:22;;;;;;;3.70;2.30;;;;;;;9.85;80.28;97968.13;5095839;28;20112;-91
2023/04/03 04:30:48;;;;;;;3.85;2.40;;;;;;;9.83;81.00;97978.81;5094109;28;20068;-94
2023/04/03 04:33:14;;;;;;;2.42;2.00;;;;;;;9.76;80.30;97949.88;5095202;28;20044;-91
2023/04/03 04:35:42;;;;;;;3.67;2.40;;;;;;;9.82;79.58;97952.28;5095172;28;20039;-91
2023/04/03 04:38:08;;;;;;;5.65;2.08;;;;;;;9.87;79.89;97971.59;5095433;28;20040;-92
2023/04/03 04:40:37;;;;;;;2.95;1.70;;;;;;;9.96;79.56;97975.69;5095360;28;20504;-93
2023/04/03 04:43:03;;;;;;;2.88;1.65;;;;;;;9.96;79.15;97967.75;5095294;28;20055;-92
2023/04/03 04:45:29;;;;;;;3.00;1.73;;;;;;;10.07;79.35;97990.31;5094831;28;20060;-92
2023/04/03 04:47:55;;;;;;;2.40;1.70;;;;;;;9.96;78.95;97960.63;5095957;28;20048;-92
2023/04/03 04:50:21;;;;;;;3.33;1.75;;;;;;;9.94;79.25;97962.47;5095447;28;20044;-93
2023/04/03 04:52:47;;;;;;;3.90;2.20;;;;;;;9.77;80.13;97947.16;5095194;28;20493;-92
2023/04/03 04:55:12;;;;;;;3.75;1.80;;;;;;;9.76;80.06;97941.91;5094975;28;20112;-92
2023/04/03 04:57:40;;;;;;;2.63;1.67;;;;;;;9.91;79.48;97969.69;5095256;28;20461;-91
2023/04/03 05:00:07;;;;;;;2.80;1.58;;;;;;;9.83;78.92;97949.59;5094576;28;20048;-92
2023/04/03 05:02:33;;;;;;;4.82;1.80;;;;;;;9.88;78.21;97942.31;5095070;28;20134;-92
2023/04/03 05:04:59;;;;;;;3.90;1.65;;;;;;;9.92;77.09;97943.06;5094777;28;20136;-93
2023/04/03 05:07:24;;;;;;;3.95;1.40;;;;;;;10.11;76.37;97963.63;5094966;28;20052;-91
2023/04/03 05:09:50;;;;;;;4.65;1.48;;;;;;;10.04;76.21;97944.38;5094767;28;20446;-93
2023/04/03 05:12:17;;;;;;;2.70;1.38;;;;;;;10.08;74.90;97940.69;5094910;28;20435;-92
2023/04/03 05:14:44;;;;;;;1.92;1.35;;;;;;;10.20;73.53;97947.34;5097863;28;20497;-92
2023/04/03 05:17:10;;;;;;;6.55;1.65;;;;;;;10.34;74.02;97976.06;5094545;28;20047;-94
2023/04/03 05:19:35;;;;;;;2.63;1.60;;;;;;;10.32;73.47;97954.84;5094371;28;20130;-92
2023/04/03 05:22:02;;;;;;;3.97;1.67;;;;;;;10.35;72.36;97962.72;5094220;28;20046;-93
2023/04/03 05:24:28;;;;;;;6.20;1.63;;;;;;;10.35;72.44;97965.38;5094133;28;20071;-93
2023/04/03 05:26:54;;;;;;;5.05;1.67;;;;;;;10.31;73.16;97963.75;5093950;28;20068;-90
2023/04/03 05:29:20;;;;;;;4.50;1.70;;;;;;;10.27;72.83;97959.44;5094869;28;20047;-93
2023/04/03 05:31:48;;;;;;;3.97;1.77;;;;;;;10.23;72.48;97947.22;5094237;28;20404;-93
2023/04/03 05:34:14;;;;;;;5.20;1.50;;;;;;;10.32;71.70;97973.44;5093642;28;20386;-93
2023/04/03 05:36:41;;;;;;;3.45;1.60;;;;;;;10.22;72.33;97961.44;5093600;28;20136;-92
2023/04/03 05:39:07;;;;;;;4.18;1.50;;;;;;;10.36;71.98;97964.44;5094656;28;20497;-93
2023/04/03 05:41:33;;;;;;;2.95;1.35;;;;;;;10.34;71.93;97968.94;5094412;28;20043;-94
2023/04/03 05:43:58;;;;;;;2.85;1.40;;;;;;;10.47;72.17;97980.84;5093824;28;20136;-95
2023/04/03 05:46:24;;;;;;;4.97;1.70;;;;;;;10.38;72.86;97941.31;5094137;28;20044;-93
2023/04/03 05:48:52;;;;;;;5.05;1.80;;;;;;;10.62;72.07;97975.84;5097763;28;20519;-93
2023/04/03 05:51:20;;;;;;;2.95;1.58;;;;;;;10.61;71.79;97974.13;5093538;28;20127;-94
2023/04/03 05:53:47;;;;;;;3.55;1.60;;;;;;;10.78;70.58;97987.59;5094481;28;20040;-93
2023/04/03 05:56:14;;;;;;;3.97;1.67;;;;;;;10.95;70.80;97994.91;5093828;28;20508;-93
2023/04/03 05:58:40;;;;;;;3.97;1.60;;;;;;;10.93;70.35;97953.31;5093949;28;20067;-95
2023/04/03 06:01:06;;;;;;;2.60;1.55;;;;;;;11.19;69.31;97965.50;5093791;28;20056;-93
2023/04/03 06:03:31;;;;;;;3.03;1.50;;;;;;;11.24;68.52;97967.06;5094287;28;20059;-92
2023/04/03 06:05:59;;;;;;;2.25;1.50;;;;;;;11.36;67.77;97992.28;5095669;28;20044;-94
2023/04/03 06:08:25;;;;;;;4.82;1.85;;;;;;;11.40;67.11;97980.56;5095394;28;20044;-94
2023/04/03 06:10:51;;;;;;;6.53;1.70;;;;;;;11.49;66.42;97990.84;5095422;28;20063;-95
2023/04/03 06:13:17;;;;;;;5.32;2.17;;;;;;;11.30;66.93;98000.53;5094122;28;20048;-94
2023/04/03 06:15:43;;;;;;;2.50;1.60;;;;;;;11.40;65.74;97980.56;5094028;28;20040;-95
2023/04/03 06:18:09;;;;;;;9.07;1.95;;;;;;;11.67;66.08;97975.84;5094161;28;20130;-92
2023/04/03 06:20:35;;;;;;;3.53;1.55;;;;;;;12.03;64.83;97984.94;5093951;28;20063;-91
2023/04/03 06:23:02;;;;;;;3.63;1.80;;;;;;;11.90;65.26;97969.50;5094614;28;20481;-93
2023/04/03 06:25:28;;;;;;;4.63;1.70;;;;;;;11.99;65.66;97994.00;5093953;28;20468;-92
2023/04/03 06:27:55;;;;;;;2.92;1.60;;;;;;;11.63;67.12;97995.56;5094511;28;20060;-93
2023/04/03 06:30:21;;;;;;;5.00;1.92;;;;;;;11.69;66.81;97997.94;5093062;28;20032;-92
2023/04/03 06:32:47;;;;;;;4.72;1.65;;;;;;;11.33;68.09;97967.59;5094412;28;20046;-93
2023/04/03 06:35:13;;;;;;;6.88;2.00;;;;;;;11.35;69.15;98003.00;5093867;28;20036;-92
2023/04/03 06:37:39;;;;;;;5.50;1.75;;;;;;;11.34;69.16;98002.13;5093642;28;20040;-94
2023/04/03 06:40:15;;;;;;;7.15;1.83;;;;;;;11.34;70.80;98011.91;5093895;28;20048;-95
2023/04/03 06:42:41;;;;;;;6.47;2.05;;;;;;;11.26;72.06;97999.78;5093731;28;20063;-92
2023/04/03 06:45:07;;;;;;;3.50;1.70;;;;;;;11.11;73.70;98000.44;5092385;28;20447;-92
2023/04/03 06:47:33;;;;;;;3.80;1.70;;;;;;;11.01;75.06;98007.91;5094772;28;20127;-92
2023/04/03 06:49:59;;;;;;;4.97;1.88;;;;;;;10.95;76.41;98016.19;5092962;28;20083;-90
2023/04/03 06:52:26;;;;;;;3.78;1.95;;;;;;;10.76;77.77;98002.75;5099025;28;20488;-94
2023/04/03 06:54:56;;;;;;;4.63;1.92;;;;;;;10.88;77.39;98002.22;5100274;28;20136;-92
2023/04/03 06:57:24;;;;;;;4.25;2.00;;;;;;;11.08;77.60;98013.84;5097668;28;20067;-93
2023/04/03 06:59:50;;;;;;;2.25;1.60;;;;;;;11.33;78.37;98020.84;5098486;28;20408;-93
2023/04/03 07:02:16;;;;;;;3.83;1.90;;;;;;;11.35;76.30;97990.56;5100511;28;20064;-93
2023/04/03 07:04:41;;;;;;;3.92;1.63;;;;;;;11.52;76.20;98003.16;5103810;28;20059;-92
2023/04/03 07:07:08;;;;;;;4.25;1.60;;;;;;;11.72;75.34;98019.13;5102802;28;20082;-94
2023/04/03 07:09:33;;;;;;;4.22;2.05;;;;;;;11.76;75.75;98033.16;5105949;28;20054;-96
2023/04/03 07:11:59;;;;;;;4.07;1.90;;;;;;;11.70;74.66;98007.66;5102055;28;20497;-93
2023/04/03 07:14:27;;;;;;;5.82;1.75;;;;;;;11.87;73.61;98016.72;5100172;28;20039;-93
2023/04/03 07:16:53;;;;;;;5.88;1.80;;;;;;;11.95;73.48;98027.94;5102883;28;20074;-92
2023/04/03 07:19:18;;;;;;;6.20;1.73;;;;;;;12.05;73.61;98036.38;5097647;28;20032;-91
2023/04/03 07:21:44;;;;;;;4.00;2.13;;;;;;;12.76;71.00;98017.13;5097529;28;20047;-93
2023/04/03 07:24:10;;;;;;;3.53;1.48;;;;;;;12.92;69.68;98018.97;5096777;28;20052;-94
2023/04/03 07:26:36;;;;;;;4.72;1.90;;;;;;;12.78;68.15;98013.44;5097049;28;20036;-94
2023/04/03 07:29:02;;;;;;;3.70;1.90;;;;;;;12.33;69.66;98010.19;5097033;28;20038;-92
2023/04/03 07:31:29;;;;;;;4.57;1.73;;;;;;;12.32;70.12;98032.47;5096744;28;20032;-93
2023/04/03 07:33:55;;;;;;;4.38;2.13;;;;;;;12.37;69.70;98018.06;5096439;28;20413;-92
2023/04/03 07:36:22;;;;;;;5.63;1.90;;;;;;;11.98;70.16;98026.94;5096447;28;20032;-92
2023/04/03 07:38:49;;;;;;;10.32;2.20;;;;;;;11.86;70.73;98021.19;5096564;28;20417;-93
2023/04/03 07:41:17;;;;;;;6.53;1.80;;;;;;;12.39;69.43;98035.72;5097372;28;20511;-91
2023/04/03 07:43:43;;;;;;;3.83;2.10;;;;;;;12.03;69.77;98033.75;5096371;28;20055;-91
2023/04/03 07:46:09;;;;;;;6.78;2.08;;;;;;;11.89;70.40;98041.53;5095589;28;20040;-91
2023/04/03 07:48:36;;;;;;;4.45;1.90;;;;;;;12.28;68.68;98017.53;5096228;28;20098;-91
2023/04/03 07:51:04;;;;;;;3.65;1.63;;;;;;;13.01;65.77;98049.69;5096489;28;20036;-93
2023/04/03 07:53:30;;;;;;;4.90;1.73;;;;;;;13.55;62.96;98041.69;5096372;28;20062;-92
2023/04/03 07:55:57;;;;;;;6.32;2.10;;;;;;;13.64;62.99;98049.25;5096103;28;20044;-93
2023/04/03 07:58:23;;;;;;;5.35;1.95;;;;;;;13.32;61.57;98043.72;5096385;28;20056;-91
2023/04/03 08:00:49;;;;;;;4.95;1.80;;;;;;;14.13;60.26;98049.38;5095363;28;20067;-92
2023/04/03 08:03:17;;;;;;;5.88;1.98;;;;;;;13.91;59.86;98041.63;5094644;28;20040;-92
2023/04/03 08:05:46;;;;;;;3.80;2.22;;;;;;;13.56;61.99;98016.72;5096690;28;20101;-91
2023/04/03 08:08:15;;;;;;;8.50;2.55;;;;;;;13.14;63.84;98033.91;5096106;28;20093;-92
2023/04/03 08:10:41;;;;;;;4.13;2.30;;;;;;;12.60;65.16;98027.63;5095527;28;20036;-93
2023/04/03 08:13:08;;;;;;;5.78;2.40;;;;;;;12.63;66.27;98027.50;5096533;28;20056;-92
2023/04/03 08:15:34;;;;;;;4.75;2.33;;;;;;;12.24;66.83;98037.28;5095734;28;20043;-93
2023/04/03 08:18:00;;;;;;;5.10;2.08;;;;;;;12.40;66.41;98029.44;5096460;28;20040;-92
2023/04/03 08:20:27;;;;;;;7.63;2.10;;;;;;;12.51;66.00;98048.50;5096794;28;20038;-94
2023/04/03 08:22:55;;;;;;;7.75;2.65;;;;;;;11.96;68.85;98056.31;5096531;28;20048;-91
2023/04/03 08:25:21;;;;;;;6.35;2.72;;;;;;;11.94;68.47;98065.31;5096327;28;20097;-91
2023/04/03 08:27:47;;;;;;;6.15;2.53;;;;;;;11.37;70.50;98062.38;5095641;28;20040;-91
2023/04/03 08:30:13;;;;;;;4.18;2.15;;;;;;;11.17;70.37;98021.47;5096272;28;20052;-92
2023/04/03 08:32:41;;;;;;;7.55;2.45;;;;;;;11.10;70.58;98036.84;5095691;28;20040;-91
2023/04/03 08:35:08;;;;;;;5.80;2.38;;;;;;;11.16;70.58;98029.53;5096001;28;20040;-91
2023/04/03 08:37:36;;;;;;;6.25;2.67;;;;;;;11.55;69.64;98026.97;5095878;28;20105;-92
2023/04/03 08:40:05;;;;;;;5.93;2.58;;;;;;;11.67;70.01;98063.72;5095713;28;20109;-93
2023/04/03 08:42:41;;;;;;;9.25;2.88;;;;;;;12.01;68.20;98056.94;5095953;28;20399;-93
2023/04/03 08:45:13;;;;;;;10.88;2.38;;;;;;;12.43;65.46;98015.13;5091057;28;20081;-93
2023/04/03 08:47:42;;;;;;;4.50;2.20;;;;;;;12.16;67.58;98027.91;5095663;28;20493;-92
2023/04/03 08:50:13;;;;;;;6.72;2.90;;;;;;;12.54;65.29;98035.00;5095132;28;20067;-91
2023/04/03 08:52:42;;;;;;;7.00;2.50;;;;;;;12.48;63.45;98007.75;5095221;28;20042;-92
2023/04/03 08:55:21;;;;;;;17.70;4.03;;;;;;;12.18;63.60;98026.03;5095706;28;20139;-91
2023/04/03 08:57:48;;;;;;;9.02;2.60;;;;;;;12.36;64.42;98022.53;5094943;28;20066;-91
2023/04/03 09:00:18;;;;;;;7.95;2.35;;;;;;;12.69;63.41;98032.56;5095137;28;20608;-92
2023/04/03 09:02:46;;;;;;;5.55;2.13;;;;;;;13.08;61.75;98024.41;5095426;28;20058;-93
2023/04/03 09:05:16;;;;;;;7.47;3.13;;;;;;;12.57;61.25;98001.13;5095296;28;20036;-93
2023/04/03 09:07:45;;;;;;;8.35;2.75;;;;;;;12.32;63.67;98016.47;5094893;28;20489;-93
2023/04/03 09:10:27;;;;;;;6.55;2.63;;;;;;;12.60;62.27;98015.19;5094039;28;20524;-92
2023/04/03 09:13:03;;;;;;;6.05;2.55;;;;;;;12.32;62.55;98051.13;5094350;28;20047;-93
2023/04/03 09:15:29;;;;;;;5.65;2.40;;;;;;;13.07;60.03;98011.13;5094788;28;20050;-94
2023/04/03 09:18:02;;;;;;;6.70;2.50;;;;;;;12.49;59.47;98009.47;5095865;28;20040;-92
2023/04/03 09:20:39;;;;;;;6.55;2.40;;;;;;;13.00;57.94;98041.75;5086782;28;20036;-92
2023/04/03 09:23:16;;;;;;;5.97;2.92;;;;;;;12.79;56.57;98036.50;5095895;28;20083;-93
2023/04/03 09:25:44;;;;;;;7.07;2.50;;;;;;;12.18;58.57;98029.56;5093710;28;20046;-93
2023/04/03 09:28:11;;;;;;;7.60;2.40;;;;;;;12.59;57.06;98023.25;5096058;28;20056;-93
2023/04/03 09:30:38;;;;;;;7.20;2.35;;;;;;;12.29;57.39;98026.41;5094993;28;20066;-93
2023/04/03 09:33:05;;;;;;;5.43;2.40;;;;;;;12.78;56.90;98058.78;5094788;28;20036;-94
2023/04/03 09:35:33;;;;;;;5.20;2.53;;;;;;;12.48;57.92;98035.28;5094269;28;20111;-93
2023/04/03 09:38:01;;;;;;;6.85;2.45;;;;;;;12.49;58.83;98038.81;5094903;28;20048;-93
2023/04/03 09:40:38;;;;;;;4.87;2.40;;;;;;;13.18;56.02;98046.16;5095200;28;20569;-91
2023/04/03 09:43:21;;;;;;;5.03;2.10;;;;;;;13.00;55.60;98039.94;5095774;28;20040;-93
2023/04/03 09:45:48;;;;;;;3.75;2.08;;;;;;;13.22;55.24;98062.91;5091435;28;20054;-93
2023/04/03 09:48:17;;;;;;;6.80;2.22;;;;;;;13.12;55.83;98062.50;5094716;28;20135;-92
2023/04/03 09:50:58;;;;;;;8.82;2.60;;;;;;;13.22;55.40;98054.91;5094239;28;20036;-93
2023/04/03 09:53:32;;;;;;;5.20;2.40;;;;;;;13.19;54.54;98047.91;5094908;28;20552;-92
2023/04/03 09:55:59;;;;;;;3.72;2.28;;;;;;;13.02;55.37;98046.06;5094336;28;20106;-92
2023/04/03 09:58:29;;;;;;;7.88;2.38;;;;;;;12.43;56.99;98050.63;5093996;28;20086;-94
2023/04/03 10:00:57;;;;;;;7.97;2.58;;;;;;;12.77;56.12;98067.72;5094190;28;20044;-92
2023/04/03 10:03:27;;;;;;;7.07;2.72;;;;;;;12.97;54.46;98050.78;5094158;28;20043;-92
2023/04/03 10:05:55;;;;;;;7.35;2.38;;;;;;;13.01;53.45;98027.44;5084877;28;20089;-93
2023/04/03 10:08:23;;;;;;;5.85;2.35;;;;;;;13.37;54.15;98064.00;5093876;28;20044;-94
2023/04/03 10:11:07;;;;;;;12.30;2.72;;;;;;;13.43;54.31;98059.22;5093314;28;20040;-93
2023/04/03 10:13:35;;;;;;;5.90;2.45;;;;;;;13.28;51.18;98042.16;5092664;28;20150;-94
2023/04/03 10:16:06;;;;;;;9.73;2.65;;;;;;;12.76;52.06;98028.66;5093461;28;20131;-93
2023/04/03 10:18:42;;;;;;;4.38;2.20;;;;;;;13.11;51.53;98066.09;5094189;28;20039;-94
2023/04/03 10:21:15;;;;;;;5.05;2.40;;;;;;;13.18;51.46;98059.53;5094943;28;20047;-92
2023/04/03 10:23:47;;;;;;;9.65;2.53;;;;;;;12.40;53.83;98069.41;5098047;28;20043;-92
2023/04/03 10:26:19;;;;;;;5.85;2.50;;;;;;;12.08;53.37;98074.41;5099048;28;20040;-93
2023/04/03 10:28:52;;;;;;;6.57;3.05;;;;;;;12.09;53.62;98069.94;5098350;28;20397;-92
2023/04/03 10:31:26;;;;;;;5.30;2.45;;;;;;;12.30;52.14;98071.66;5097392;28;20036;-92
2023/04/03 10:34:00;;;;;;;7.93;2.40;;;;;;;11.62;51.17;98075.50;5098472;28;20497;-93
2023/04/03 10:36:37;;;;;;;7.95;2.50;;;;;;;12.05;51.55;98039.03;5097404;28;20044;-92
2023/04/03 10:39:15;;;;;;;9.15;2.55;;;;;;;12.62;52.19;98072.00;5096907;28;20362;-93
2023/04/03 10:41:53;;;;;;;7.03;2.67;;;;;;;13.02;50.25;98035.38;5098458;28;20040;-93
2023/04/03 10:44:36;;;;;;;10.48;2.65;;;;;;;13.19;48.35;98023.91;5098263;28;20374;-92
2023/04/03 10:47:13;;;;;;;6.55;2.42;;;;;;;13.33;46.29;98050.78;5077255;28;20036;-94
2023/04/03 10:49:50;;;;;;;6.65;2.42;;;;;;;13.48;47.42;98065.19;5086707;28;20051;-93
2023/04/03 10:52:22;;;;;;;5.35;2.00;;;;;;;13.52;45.68;98065.91;5097328;28;20051;-95
2023/04/03 10:54:58;;;;;;;5.28;2.10;;;;;;;12.91;45.86;98027.06;5097626;28;20044;-92
2023/04/03 10:57:26;;;;;;;9.43;2.20;;;;;;;13.15;47.35;98022.31;5098856;28;20135;-94
2023/04/03 10:59:57;;;;;;;6.38;2.22;;;;;;;13.30;46.47;98021.56;5098397;28;20044;-94
2023/04/03 11:02:27;;;;;;;7.22;2.30;;;;;;;13.72;46.05;98049.72;5098243;28;20036;-94
2023/04/03 11:04:59;;;;;;;5.65;2.33;;;;;;;13.29;44.69;98043.91;5098996;28;20128;-93
2023/04/03 11:07:28;;;;;;;6.43;2.40;;;;;;;13.34;45.08;98031.16;5098372;28;20139;-92
2023/04/03 11:09:59;;;;;;;7.50;2.40;;;;;;;13.07;44.37;98017.34;5097357;28;20048;-93
2023/04/03 11:12:33;;;;;;;5.78;2.20;;;;;;;13.05;45.04;98018.34;5097569;28;20044;-93
2023/04/03 11:15:03;;;;;;;6.93;2.28;;;;;;;12.76;44.59;98009.97;5097571;28;20515;-92
2023/04/03 11:17:37;;;;;;;8.68;2.35;;;;;;;13.19;44.26;98007.88;5097355;28;20043;-95
2023/04/03 11:20:14;;;;;;;9.27;2.40;;;;;;;13.61;42.70;98009.34;5097540;28;20523;-93
2023/04/03 11:22:42;;;;;;;6.13;2.30;;;;;;;13.54;43.72;98015.94;5097817;28;20123;-93
2023/04/03 11:25:21;;;;;;;5.15;1.92;;;;;;;13.25;43.51;98010.25;5098736;28;20123;-93
2023/04/03 11:27:55;;;;;;;4.32;2.20;;;;;;;12.94;41.84;97981.53;5096993;28;20044;-92
2023/04/03 11:30:28;;;;;;;7.68;2.47;;;;;;;12.99;43.88;98015.97;5097411;28;20040;-92
2023/04/03 11:33:11;;;;;;;5.50;2.35;;;;;;;13.07;44.65;97995.13;5095946;28;20042;-93
2023/04/03 11:35:42;;;;;;;7.95;2.10;;;;;;;13.27;43.52;98010.13;5096158;28;20044;-93
2023/04/03 11:38:17;;;;;;;4.28;2.13;;;;;;;13.20;42.51;97987.38;5096201;28;20040;-93
2023/04/03 11:40:44;;;;;;;6.35;2.20;;;;;;;13.39;41.88;98006.03;5094865;28;20127;-94